Time;durP1;ratioP1;P1;durP2;ratioP2;P2;SDS_P1;SDS_P2;PMS_P1;PMS_P2;Temp;Humidity;BMP_temperature;BMP_pressure;BME280_temperature;BME280_humidity;BME280_pressure;Samples;Min_cycle;Max_cycle;Signal;HPM_P1;HPM_P2
2022/02/03 00:04:31;;;;;;;7.40;6.70;;;;;;;0.28;100.00;98933.28;105249;1270;62245;-74
2022/02/03 00:07:04;;;;;;;8.80;7.30;;;;;;;0.27;100.00;98941.70;104923;1271;75464;-75
2022/02/03 00:22:02;;;;;;;10.00;8.70;;;;;;;0.25;100.00;98950.13;105236;1271;61239;-75
2022/02/03 00:23:33;;;;;;;11.20;10.00;;;;;;;0.25;100.00;98957.46;105265;1271;69388;-74
2022/02/03 00:25:58;;;;;;;10.40;8.50;;;;;;;0.26;100.00;98962.16;105230;1270;73217;-74
2022/02/03 00:28:29;;;;;;;10.00;8.60;;;;;;;0.26;100.00;98963.55;105270;1271;61372;-74
2022/02/03 00:31:05;;;;;;;7.90;7.00;;;;;;;0.26;100.00;98968.11;105223;1271;61346;-74
2022/02/03 00:33:40;;;;;;;7.40;6.70;;;;;;;0.26;100.00;98968.80;104969;1271;74257;-74
2022/02/03 00:36:38;;;;;;;9.10;8.00;;;;;;;0.25;100.00;98978.27;104994;1271;69631;-74
2022/02/03 00:52:28;;;;;;;13.60;11.70;;;;;;;0.21;100.00;99001.94;105227;1271;74268;-74
2022/02/03 00:54:55;;;;;;;16.70;11.90;;;;;;;0.21;100.00;99003.34;104989;1272;61211;-79
2022/02/03 00:57:51;;;;;;;16.10;11.50;;;;;;;0.21;100.00;99004.73;104962;1271;62008;-73
2022/02/03 01:00:20;;;;;;;13.20;9.50;;;;;;;0.21;100.00;99005.43;104851;1277;76260;-74
2022/02/03 01:03:12;;;;;;;12.30;9.80;;;;;;;0.21;100.00;99012.95;104626;1277;68495;-73
2022/02/03 01:05:42;;;;;;;15.10;10.10;;;;;;;0.21;100.00;99025.88;104879;1277;73269;-74
2022/02/03 01:08:19;;;;;;;10.60;8.10;;;;;;;0.21;100.00;99033.56;104897;1277;61527;-74
2022/02/03 01:10:54;;;;;;;9.90;8.50;;;;;;;0.23;100.00;99041.39;104884;1277;61577;-74
2022/02/03 01:14:14;;;;;;;9.40;8.10;;;;;;;0.22;100.00;99042.46;104835;1277;226143;-73
2022/02/03 01:16:24;;;;;;;12.70;8.70;;;;;;;0.22;100.00;99047.70;104762;1277;69344;-74
2022/02/03 01:46:09;;;;;;;9.30;6.60;;;;;;;0.08;100.00;99067.09;105219;1271;73545;-74
2022/02/03 01:51:40;;;;;;;9.40;7.70;;;;;;;0.04;100.00;99074.51;104972;1271;61330;-74
2022/02/03 01:54:07;;;;;;;7.80;6.60;;;;;;;0.04;100.00;99074.53;104993;1271;74626;-74
2022/02/03 01:56:39;;;;;;;10.10;7.70;;;;;;;0.03;100.00;99075.23;105225;1271;70795;-76
2022/02/03 01:59:24;;;;;;;10.70;7.50;;;;;;;0.02;100.00;99080.67;105037;1270;73399;-75
2022/02/03 02:01:58;;;;;;;8.50;6.60;;;;;;;0.01;100.00;99088.73;105093;1271;61461;-75
2022/02/03 02:04:30;;;;;;;11.20;7.50;;;;;;;-0.02;100.00;99094.71;105216;1270;61291;-73
2022/02/03 02:07:10;;;;;;;10.00;6.80;;;;;;;-0.03;100.00;99094.39;105231;1271;75447;-73
2022/02/03 02:12:53;;;;;;;8.40;5.40;;;;;;;-0.05;100.00;99099.52;105225;1271;72162;-74
2022/02/03 02:42:56;;;;;;;7.80;4.70;;;;;;;-0.31;100.00;99164.48;105238;1271;61438;-74
2022/02/03 02:45:38;;;;;;;8.30;4.00;;;;;;;-0.31;100.00;99178.12;105213;1271;61282;-74
2022/02/03 02:48:23;;;;;;;7.30;4.40;;;;;;;-0.33;100.00;99181.30;105251;1270;75190;-74
2022/02/03 02:51:03;;;;;;;5.80;4.10;;;;;;;-0.34;100.00;99186.73;105218;1271;70124;-74
2022/02/03 02:53:40;;;;;;;;;;;;;;;-0.34;100.00;99193.02;105242;1271;73156;-74
2022/02/03 02:56:24;;;;;;;6.50;4.90;;;;;;;-0.35;100.00;99199.15;105196;1271;61329;-74
2022/02/03 03:30:39;;;;;;;9.20;7.10;;;;;;;-0.48;100.00;99219.98;105219;1271;76337;-75
2022/02/03 03:38:21;;;;;;;8.80;4.50;;;;;;;-0.52;100.00;99230.87;105263;1269;61248;-73
2022/02/03 03:40:52;;;;;;;9.20;5.20;;;;;;;-0.54;100.00;99241.73;105305;1271;61708;-75
2022/02/03 03:43:21;;;;;;;7.40;4.20;;;;;;;-0.54;100.00;99242.08;105317;1270;75146;-74
2022/02/03 03:45:52;;;;;;;7.00;4.60;;;;;;;-0.56;100.00;99239.85;105265;1271;68151;-76
2022/02/03 03:48:26;;;;;;;8.00;5.50;;;;;;;-0.57;100.00;99243.20;105263;1270;73156;-75
2022/02/03 03:50:55;;;;;;;8.00;5.20;;;;;;;-0.60;100.00;99243.92;105259;1270;61244;-75
2022/02/03 03:53:35;;;;;;;6.60;4.40;;;;;;;-0.64;100.00;99248.73;105317;1270;61305;-75
2022/02/03 04:34:46;;;;;;;10.30;7.10;;;;;;;-1.46;100.00;99282.27;105476;1277;61377;-74
2022/02/03 04:59:08;;;;;;;10.60;6.90;;;;;;;-1.69;100.00;99310.26;104664;1277;69375;-75
2022/02/03 05:07:05;;;;;;;17.20;11.90;;;;;;;-1.85;100.00;99312.20;104576;1277;61772;-75
2022/02/03 05:10:32;;;;;;;19.50;14.30;;;;;;;-1.91;100.00;99315.75;104498;1277;75101;-75
2022/02/03 05:19:08;;;;;;;23.30;17.30;;;;;;;-2.05;100.00;99321.64;103963;1285;61293;-74
2022/02/03 05:51:13;;;;;;;18.10;13.40;;;;;;;-2.38;100.00;99338.69;104560;1279;61284;-75
2022/02/03 06:07:38;;;;;;;12.50;10.10;;;;;;;-2.29;100.00;99366.09;105078;1271;61583;-75
2022/02/03 06:12:59;;;;;;;13.60;9.80;;;;;;;-2.21;100.00;99375.94;105235;1271;74241;-74
2022/02/03 06:16:04;;;;;;;16.50;11.10;;;;;;;-2.16;100.00;99373.81;105309;1271;61300;-74
2022/02/03 06:23:41;;;;;;;13.70;10.10;;;;;;;-2.01;100.00;99375.04;104972;1271;69367;-74
2022/02/03 06:29:08;;;;;;;15.60;10.60;;;;;;;-1.84;100.00;99387.41;105232;1271;61390;-74
2022/02/03 06:31:39;;;;;;;16.10;11.10;;;;;;;-1.77;100.00;99388.90;105380;1271;61262;-75
2022/02/03 06:34:07;;;;;;;17.00;11.40;;;;;;;-1.70;100.00;99390.92;105284;1271;76171;-74
2022/02/03 06:36:35;;;;;;;18.70;13.70;;;;;;;-1.64;100.00;99395.90;105174;1271;69221;-75
2022/02/03 06:39:02;;;;;;;32.40;17.30;;;;;;;-1.58;100.00;99399.66;105255;1271;74247;-75
2022/02/03 06:41:29;;;;;;;38.30;22.20;;;;;;;-1.52;100.00;99407.98;105237;1269;61230;-75
2022/02/03 06:43:56;;;;;;;49.00;25.50;;;;;;;-1.47;100.00;99404.42;105284;1271;62319;-75
2022/02/03 06:46:25;;;;;;;45.90;25.70;;;;;;;-1.43;100.00;99409.08;105284;1270;75365;-75
2022/02/03 06:49:04;;;;;;;34.50;19.50;;;;;;;-1.37;100.00;99409.88;105077;1272;69460;-75
2022/02/03 06:51:34;;;;;;;39.40;21.00;;;;;;;-1.32;100.00;99410.16;105272;1271;73329;-76
2022/02/03 06:54:06;;;;;;;32.40;18.70;;;;;;;-1.25;100.00;99407.80;105230;1271;61326;-75
2022/02/03 06:56:42;;;;;;;40.90;21.10;;;;;;;-1.19;100.00;99405.99;105243;1271;61282;-75
2022/02/03 06:59:13;;;;;;;21.60;12.90;;;;;;;-1.12;100.00;99404.50;105270;1268;75454;-77
2022/02/03 07:01:43;;;;;;;37.00;21.60;;;;;;;-1.08;100.00;99398.88;105204;1271;69264;-77
2022/02/03 07:04:36;;;;;;;30.80;17.80;;;;;;;-1.06;100.00;99397.80;105011;1271;74473;-76
2022/02/03 07:07:01;;;;;;;28.50;15.30;;;;;;;-1.06;100.00;99399.89;105208;1270;61222;-76
2022/02/03 07:09:29;;;;;;;31.10;17.20;;;;;;;-1.05;100.00;99399.89;105229;1271;61269;-74
2022/02/03 07:11:56;;;;;;;28.60;17.80;;;;;;;-1.04;100.00;99400.22;105237;1271;75487;-75
2022/02/03 07:14:24;;;;;;;36.60;18.50;;;;;;;-1.02;100.00;99412.58;105220;1271;69470;-75
2022/02/03 07:16:52;;;;;;;19.20;12.00;;;;;;;-1.02;100.00;99412.41;105182;1271;73135;-76
2022/02/03 07:19:19;;;;;;;17.20;12.60;;;;;;;-1.04;100.00;99415.73;105243;1271;61263;-75
2022/02/03 07:21:47;;;;;;;17.10;12.10;;;;;;;-1.01;100.00;99419.01;105238;1271;61272;-76
2022/02/03 07:24:14;;;;;;;17.20;12.60;;;;;;;-0.97;100.00;99419.32;105242;1271;76272;-76
2022/02/03 07:26:41;;;;;;;16.90;12.00;;;;;;;-0.95;100.00;99422.59;105081;1271;69240;-75
2022/02/03 07:29:07;;;;;;;13.90;9.60;;;;;;;-0.92;100.00;99425.01;105188;1271;74132;-75
2022/02/03 07:31:34;;;;;;;21.30;13.00;;;;;;;-0.90;100.00;99425.31;105150;1271;61298;-74
2022/02/03 07:34:08;;;;;;;21.10;12.20;;;;;;;-0.86;100.00;99435.55;105081;1271;61166;-74
2022/02/03 07:36:36;;;;;;;26.40;13.80;;;;;;;-0.82;100.00;99437.94;105095;1271;75120;-75
2022/02/03 07:39:04;;;;;;;33.90;15.70;;;;;;;-0.77;100.00;99443.10;105255;1271;70351;-76
2022/02/03 07:41:31;;;;;;;27.00;14.30;;;;;;;-0.72;100.00;99442.51;105206;1271;73828;-75
2022/02/03 07:43:57;;;;;;;28.10;15.00;;;;;;;-0.66;100.00;99448.88;105187;1271;61301;-75
2022/02/03 07:46:24;;;;;;;34.90;18.20;;;;;;;-0.56;100.00;99454.66;105063;1271;61308;-75
2022/02/03 07:48:52;;;;;;;33.60;18.40;;;;;;;-0.47;100.00;99450.35;105163;1271;75192;-76
2022/02/03 07:51:19;;;;;;;37.50;20.30;;;;;;;-0.36;100.00;99453.15;105236;1271;69254;-74
2022/02/03 07:53:46;;;;;;;28.30;14.60;;;;;;;-0.22;100.00;99451.70;105218;1271;74277;-75
2022/02/03 07:56:12;;;;;;;23.30;14.40;;;;;;;-0.05;100.00;99445.67;105221;1271;61490;-75
2022/02/03 07:58:39;;;;;;;20.00;13.00;;;;;;;0.14;100.00;99442.22;105203;1271;60092;-75
2022/02/03 08:01:05;;;;;;;18.90;11.00;;;;;;;0.27;100.00;99442.50;105252;1271;76270;-75
2022/02/03 08:03:32;;;;;;;18.40;10.20;;;;;;;0.35;100.00;99440.43;105182;1271;70302;-75
2022/02/03 08:06:03;;;;;;;20.70;11.60;;;;;;;0.46;100.00;99449.84;104895;1272;73139;-75
2022/02/03 08:08:39;;;;;;;23.60;11.80;;;;;;;0.59;100.00;99447.67;105215;1271;61305;-74
2022/02/03 08:11:11;;;;;;;25.90;14.30;;;;;;;0.73;100.00;99440.77;105050;1270;61370;-76
2022/02/03 08:13:49;;;;;;;19.50;12.70;;;;;;;0.87;100.00;99435.92;105224;1271;75573;-75
2022/02/03 08:16:26;;;;;;;28.90;16.80;;;;;;;1.02;100.00;99430.02;105057;1272;70026;-82
2022/02/03 08:19:01;;;;;;;28.90;19.70;;;;;;;1.16;100.00;99431.30;105272;1270;74197;-84
2022/02/03 08:21:27;;;;;;;26.80;17.40;;;;;;;1.38;100.00;99430.11;105252;1271;61307;-75
2022/02/03 08:24:13;;;;;;;24.80;16.50;;;;;;;1.54;100.00;99425.71;105223;1270;61256;-75
2022/02/03 08:26:59;;;;;;;25.80;14.80;;;;;;;1.67;100.00;99424.88;105247;1271;75282;-76
2022/02/03 08:32:06;;;;;;;22.40;13.80;;;;;;;1.69;100.00;99418.88;104992;1271;73187;-74
2022/02/03 08:35:22;;;;;;;23.40;15.60;;;;;;;1.75;100.00;99413.64;105257;1271;61341;-79
2022/02/03 08:37:23;;;;;;;20.40;12.80;;;;;;;1.85;100.00;99410.60;105226;1269;61319;-76
2022/02/03 08:39:55;;;;;;;23.60;14.90;;;;;;;1.89;100.00;99410.33;105230;1271;75293;-77
2022/02/03 08:42:23;;;;;;;26.20;15.80;;;;;;;1.87;100.00;99411.77;105232;1271;69187;-75
2022/02/03 08:44:50;;;;;;;25.00;14.30;;;;;;;1.90;100.00;99414.85;105196;1271;74160;-75
2022/02/03 08:47:17;;;;;;;22.20;14.50;;;;;;;1.93;100.00;99403.40;105230;1271;61261;-75
2022/02/03 08:49:46;;;;;;;25.30;14.70;;;;;;;1.96;100.00;99400.50;105272;1271;61813;-75
2022/02/03 08:52:17;;;;;;;26.50;17.20;;;;;;;1.99;100.00;99397.81;105007;1271;76397;-77
2022/02/03 08:55:08;;;;;;;28.50;19.90;;;;;;;2.06;100.00;99403.42;105285;1271;70122;-74
2022/02/03 08:57:59;;;;;;;28.40;19.60;;;;;;;2.11;100.00;99401.88;105272;1271;73088;-77
2022/02/03 09:28:38;;;;;;;35.80;22.20;;;;;;;2.58;100.00;99393.25;105280;1271;61294;-75
2022/02/03 09:57:59;;;;;;;36.30;21.20;;;;;;;3.35;100.00;99376.04;105289;1271;61222;-75
2022/02/03 10:01:24;;;;;;;34.90;21.90;;;;;;;3.37;100.00;99369.51;105028;1271;76356;-75
2022/02/03 10:06:05;;;;;;;33.70;22.20;;;;;;;3.18;100.00;99367.80;105122;1271;74379;-76
2022/02/03 10:08:33;;;;;;;35.10;23.30;;;;;;;3.11;100.00;99369.60;105369;1271;61266;-77
2022/02/03 10:11:14;;;;;;;34.30;23.60;;;;;;;3.14;100.00;99369.34;105608;1270;61370;-75
2022/02/03 10:13:52;;;;;;;32.50;19.20;;;;;;;3.36;100.00;99363.71;105240;1271;75072;-76
2022/02/03 10:16:40;;;;;;;28.70;19.00;;;;;;;3.51;100.00;99359.36;105302;1271;69390;-75
2022/02/03 10:19:15;;;;;;;30.40;16.40;;;;;;;3.57;100.00;99353.22;105239;1271;73524;-76
2022/02/03 10:21:44;;;;;;;22.50;15.40;;;;;;;3.57;100.00;99353.40;105308;1271;61367;-77
2022/02/03 10:24:19;;;;;;;25.60;15.50;;;;;;;3.47;100.00;99353.16;105211;1271;61209;-76
2022/02/03 10:26:49;;;;;;;23.30;14.20;;;;;;;3.32;100.00;99355.06;105334;1271;76461;-75
2022/02/03 10:29:21;;;;;;;;;;;;;;;3.21;100.00;99355.23;105364;1271;69140;-76
2022/02/03 10:31:48;;;;;;;19.40;10.50;;;;;;;3.04;100.00;99350.65;105435;1271;72622;-75
2022/02/03 10:34:23;;;;;;;19.50;11.90;;;;;;;2.97;100.00;99347.55;105394;1271;61201;-75
2022/02/03 10:37:07;;;;;;;19.20;12.20;;;;;;;3.03;100.00;99348.77;105338;1271;62029;-76
2022/02/03 10:50:27;;;;;;;22.20;14.20;;;;;;;3.05;100.00;99329.38;105334;1271;61257;-76
2022/02/03 11:01:22;;;;;;;23.00;14.20;;;;;;;3.21;100.00;99320.63;105429;1271;61272;-76
2022/02/03 11:06:53;;;;;;;20.10;12.30;;;;;;;3.36;100.00;99322.61;105353;1272;76162;-76
2022/02/03 11:09:33;;;;;;;19.40;11.80;;;;;;;3.30;100.00;99322.28;105865;1271;70525;-74
2022/02/03 11:12:01;;;;;;;17.70;10.60;;;;;;;3.24;100.00;99319.14;106068;1271;72255;-75
2022/02/03 11:14:30;;;;;;;21.60;11.80;;;;;;;3.19;100.00;99318.08;106271;1271;61167;-75
2022/02/03 11:16:58;;;;;;;21.50;11.30;;;;;;;3.14;100.00;99323.15;106707;1271;61251;-76
2022/02/03 11:19:28;;;;;;;20.40;11.10;;;;;;;3.12;100.00;99323.05;108474;1271;75367;-75
2022/02/03 11:22:04;;;;;;;17.40;9.60;;;;;;;3.08;100.00;99321.76;108524;1271;69083;-76
2022/02/03 11:24:40;;;;;;;18.00;9.80;;;;;;;3.02;100.00;99321.41;107427;1273;73445;-76
2022/02/03 11:31:12;;;;;;;19.00;10.50;;;;;;;3.01;100.00;99318.66;104968;1274;61960;-76
2022/02/03 11:36:13;;;;;;;21.30;10.00;;;;;;;3.00;100.00;99322.37;105054;1274;69177;-74
2022/02/03 12:03:54;;;;;;;13.40;7.60;;;;;;;4.35;100.00;99297.61;105272;1270;69246;-74
2022/02/03 12:21:02;;;;;;;10.90;8.00;;;;;;;4.79;100.00;99277.63;105303;1271;73467;-77
2022/02/03 12:24:10;;;;;;;13.70;7.60;;;;;;;4.88;99.21;99274.81;105273;1271;61293;-74
2022/02/03 12:26:46;;;;;;;15.10;8.80;;;;;;;4.86;99.49;99271.05;105310;1270;61378;-74
2022/02/03 12:29:23;;;;;;;16.00;9.20;;;;;;;4.88;99.60;99272.88;105288;1271;74600;-74
2022/02/03 12:40:43;;;;;;;15.40;8.80;;;;;;;5.29;99.83;99262.44;105307;1271;61368;-75
2022/02/03 12:43:34;;;;;;;13.10;8.20;;;;;;;5.43;99.62;99257.27;105068;1271;75148;-74
2022/02/03 12:46:03;;;;;;;13.80;8.90;;;;;;;5.46;98.25;99251.14;105083;1271;70373;-74
2022/02/03 12:48:32;;;;;;;14.40;7.10;;;;;;;5.37;98.03;99245.72;105233;1274;73816;-74
2022/02/03 12:50:59;;;;;;;16.00;7.90;;;;;;;5.32;98.40;99243.11;105372;1271;61256;-74
2022/02/03 12:53:31;;;;;;;13.40;7.70;;;;;;;5.23;98.20;99245.59;105305;1271;61279;-74
2022/02/03 12:55:58;;;;;;;12.40;7.50;;;;;;;5.10;97.55;99242.25;105479;1270;76178;-75
2022/02/03 12:58:26;;;;;;;10.60;6.40;;;;;;;4.93;97.24;99243.45;105257;1270;69401;-74
2022/02/03 13:01:02;;;;;;;12.20;6.70;;;;;;;4.80;97.39;99250.11;105271;1271;74289;-74
2022/02/03 13:03:35;;;;;;;10.30;6.60;;;;;;;4.77;97.46;99248.65;105266;1271;61262;-74
2022/02/03 13:06:06;;;;;;;12.80;7.10;;;;;;;4.76;97.87;99244.82;105345;1271;61281;-74
2022/02/03 13:08:40;;;;;;;13.70;7.10;;;;;;;4.76;97.10;99240.42;105285;1271;75924;-74
2022/02/03 13:11:23;;;;;;;13.70;7.90;;;;;;;4.77;97.14;99237.38;105144;1273;69143;-74
2022/02/03 13:14:26;;;;;;;11.30;7.50;;;;;;;4.77;96.76;99239.87;104915;1271;275051;-75
2022/02/03 13:22:29;;;;;;;11.10;5.60;;;;;;;4.65;96.49;99224.48;105267;1269;75535;-75
2022/02/03 13:25:23;;;;;;;11.90;5.90;;;;;;;4.61;96.01;99227.79;105118;1271;70414;-74
2022/02/03 13:31:07;;;;;;;11.50;5.80;;;;;;;4.54;95.62;99221.73;105291;1271;61360;-74
2022/02/03 13:33:37;;;;;;;10.40;5.60;;;;;;;4.48;95.29;99219.16;105378;1271;61266;-75
2022/02/03 13:36:12;;;;;;;9.40;5.80;;;;;;;4.45;95.06;99218.59;105299;1272;75250;-76
2022/02/03 13:41:23;;;;;;;10.30;6.10;;;;;;;4.37;94.47;99215.36;105292;1271;74287;-75
2022/02/03 13:43:50;;;;;;;10.70;6.20;;;;;;;4.32;94.13;99213.27;105264;1271;61352;-76
2022/02/03 13:46:33;;;;;;;13.50;6.10;;;;;;;4.28;93.64;99213.06;105329;1271;61347;-76
2022/02/03 13:48:59;;;;;;;12.80;6.00;;;;;;;4.27;93.64;99214.01;105000;1271;74669;-75
2022/02/03 13:51:28;;;;;;;11.30;5.70;;;;;;;4.26;93.54;99211.92;105265;1271;69183;-74
2022/02/03 13:54:04;;;;;;;12.20;6.20;;;;;;;4.21;94.21;99216.33;105319;1269;73340;-74
2022/02/03 14:21:07;;;;;;;14.00;6.30;;;;;;;4.19;92.34;99173.13;105303;1271;72667;-75
2022/02/03 14:28:56;;;;;;;10.40;5.10;;;;;;;4.15;91.10;99169.95;105272;1271;75372;-75
2022/02/03 14:31:23;;;;;;;11.30;4.50;;;;;;;4.13;91.27;99166.51;105269;1271;70144;-75
2022/02/03 14:33:49;;;;;;;10.60;4.60;;;;;;;4.10;91.77;99166.10;105265;1271;73145;-76
2022/02/03 14:36:20;;;;;;;9.80;4.50;;;;;;;4.07;91.15;99163.20;105290;1271;61487;-74
2022/02/03 14:41:25;;;;;;;11.10;6.00;;;;;;;4.04;90.68;99163.88;105278;1271;75153;-74
2022/02/03 14:43:52;;;;;;;17.50;8.00;;;;;;;4.01;91.44;99162.92;105302;1271;69201;-74
2022/02/03 14:46:19;;;;;;;17.60;7.40;;;;;;;3.97;91.41;99156.20;105253;1271;73369;-74
2022/02/03 14:48:46;;;;;;;20.00;8.70;;;;;;;3.93;91.52;99156.36;105253;1271;61686;-74
2022/02/03 14:51:16;;;;;;;11.70;5.60;;;;;;;3.89;91.47;99154.41;105264;1271;61271;-75
2022/02/03 14:59:15;;;;;;;19.10;10.00;;;;;;;3.73;91.43;99151.80;105629;1271;73111;-75
2022/02/03 15:01:42;;;;;;;29.80;13.60;;;;;;;3.68;91.78;99150.24;104960;1272;61356;-77
2022/02/03 15:04:12;;;;;;;30.50;14.10;;;;;;;3.63;91.72;99145.35;105272;1271;61233;-75
2022/02/03 15:06:42;;;;;;;25.40;13.50;;;;;;;3.57;91.84;99145.57;105264;1271;74565;-75
2022/02/03 15:12:00;;;;;;;34.20;16.40;;;;;;;3.42;92.01;99138.88;105267;1271;72436;-76
2022/02/03 15:14:26;;;;;;;41.00;18.70;;;;;;;3.35;92.18;99138.96;105281;1271;61186;-76
2022/02/03 15:16:53;;;;;;;33.90;18.20;;;;;;;3.27;92.55;99134.51;105292;1271;62475;-75
2022/02/03 15:19:19;;;;;;;21.90;11.60;;;;;;;3.17;92.57;99137.98;105272;1271;75083;-74
2022/02/03 15:21:46;;;;;;;18.50;11.10;;;;;;;3.08;92.63;99138.31;105281;1271;70108;-75
2022/02/03 15:24:12;;;;;;;19.50;11.00;;;;;;;2.98;92.73;99139.17;104981;1271;61385;-75
2022/02/03 15:26:39;;;;;;;16.30;10.10;;;;;;;2.91;92.83;99130.65;105273;1271;61497;-75
2022/02/03 15:29:06;;;;;;;20.30;10.10;;;;;;;2.83;92.91;99130.56;105325;1271;62185;-74
2022/02/03 15:31:33;;;;;;;18.70;10.60;;;;;;;2.76;93.16;99131.85;105290;1271;75837;-75
2022/02/03 15:34:08;;;;;;;16.70;9.80;;;;;;;2.69;93.15;99129.28;105286;1271;69213;-75
2022/02/03 15:36:37;;;;;;;26.20;13.00;;;;;;;2.61;93.32;99131.80;105275;1271;73474;-76
2022/02/03 15:39:09;;;;;;;24.40;14.40;;;;;;;2.55;93.58;99133.21;105289;1271;61389;-75
2022/02/03 15:41:38;;;;;;;28.40;13.80;;;;;;;2.47;93.74;99134.73;105238;1271;61794;-75
2022/02/03 15:44:04;;;;;;;24.00;12.90;;;;;;;2.39;93.95;99136.02;105133;1274;73432;-74
2022/02/03 15:46:36;;;;;;;28.40;14.90;;;;;;;2.30;94.20;99137.16;105263;1271;68217;-74
2022/02/03 16:13:28;;;;;;;34.50;16.30;;;;;;;1.40;96.84;99128.60;105324;1268;69058;-75
2022/02/03 16:18:28;;;;;;;34.10;16.70;;;;;;;1.25;97.40;99127.26;105245;1271;61257;-74
2022/02/03 16:21:13;;;;;;;35.10;18.30;;;;;;;1.18;97.22;99125.00;105315;1269;61299;-76
2022/02/03 16:51:06;;;;;;;35.20;20.20;;;;;;;0.55;99.13;99120.83;105448;1271;76406;-75
2022/02/03 16:53:32;;;;;;;40.90;21.50;;;;;;;0.49;99.13;99118.54;105169;1271;68904;-74
2022/02/03 16:56:01;;;;;;;41.90;22.80;;;;;;;0.44;99.43;99119.36;105376;1271;73351;-75
2022/02/03 16:58:32;;;;;;;40.90;22.80;;;;;;;0.39;99.71;99114.38;105387;1271;61140;-75
2022/02/03 17:00:59;;;;;;;43.70;23.60;;;;;;;0.37;99.94;99113.92;105407;1271;61357;-75
2022/02/03 17:03:27;;;;;;;44.70;23.80;;;;;;;0.32;99.94;99108.63;105525;1271;75429;-75
2022/02/03 17:05:54;;;;;;;48.10;26.60;;;;;;;0.27;100.00;99105.41;105738;1271;70748;-74
2022/02/03 17:08:21;;;;;;;49.80;28.30;;;;;;;0.23;100.00;99100.45;105760;1271;72863;-74
2022/02/03 17:10:48;;;;;;;52.20;28.70;;;;;;;0.18;100.00;99098.29;105786;1269;61304;-75
2022/02/03 17:13:15;;;;;;;63.60;31.80;;;;;;;0.14;100.00;99096.47;106027;1271;61347;-73
2022/02/03 17:15:42;;;;;;;68.90;35.40;;;;;;;0.10;100.00;99094.29;106048;1271;76078;-76
2022/02/03 17:18:10;;;;;;;71.80;36.60;;;;;;;0.07;100.00;99093.83;107287;1270;69070;-73
2022/02/03 17:20:39;;;;;;;68.20;38.30;;;;;;;0.03;100.00;99094.96;108694;1270;73252;-74
2022/02/03 17:23:19;;;;;;;67.70;37.70;;;;;;;0.02;100.00;99093.77;108575;1271;61418;-74
2022/02/03 17:25:53;;;;;;;71.20;41.10;;;;;;;0.00;100.00;99089.80;107863;1271;60956;-75
2022/02/03 17:28:30;;;;;;;73.70;40.20;;;;;;;-0.03;100.00;99086.02;105826;1271;75034;-77
2022/02/03 17:31:06;;;;;;;83.60;44.30;;;;;;;-0.05;100.00;99080.30;105372;1271;69589;-75
2022/02/03 18:11:34;;;;;;;94.70;53.80;;;;;;;-0.10;100.00;99059.64;105334;1271;70183;-76
2022/02/03 18:19:57;;;;;;;86.90;47.50;;;;;;;-0.05;100.00;99047.64;105098;1271;61357;-75
2022/02/03 18:29:07;;;;;;;96.10;54.00;;;;;;;0.03;100.00;99043.45;105252;1269;73902;-75
2022/02/03 18:30:53;;;;;;;91.10;50.40;;;;;;;0.05;100.00;99036.06;105285;1271;61360;-76
2022/02/03 18:57:36;;;;;;;46.10;25.70;;;;;;;0.25;100.00;99013.05;105312;1271;61364;-75
2022/02/03 20:05:30;;;;;;;28.30;14.40;;;;;;;0.97;100.00;98934.69;104549;1277;61309;-75
2022/02/03 20:08:24;;;;;;;24.90;14.30;;;;;;;0.99;100.00;98929.56;105161;1271;61319;-74
2022/02/03 20:10:49;;;;;;;24.90;13.40;;;;;;;1.00;100.00;98926.40;105297;1271;76803;-75
2022/02/03 20:13:17;;;;;;;27.70;15.60;;;;;;;1.02;100.00;98925.11;105273;1271;69342;-74
2022/02/03 20:15:45;;;;;;;34.80;19.70;;;;;;;1.03;100.00;98919.65;105160;1271;73766;-74
2022/02/03 20:18:12;;;;;;;35.10;20.20;;;;;;;1.04;100.00;98917.16;105271;1271;61288;-75
2022/02/03 20:20:41;;;;;;;32.50;18.70;;;;;;;1.06;100.00;98911.35;105319;1271;62711;-73
2022/02/03 20:23:12;;;;;;;41.50;23.60;;;;;;;1.07;100.00;98909.20;105357;1271;75536;-74
2022/02/03 20:25:41;;;;;;;47.50;25.80;;;;;;;1.09;100.00;98904.08;105369;1271;70233;-76
2022/02/03 20:28:08;;;;;;;44.40;23.60;;;;;;;1.10;100.00;98903.34;105336;1271;74610;-74
2022/02/03 20:30:36;;;;;;;43.90;24.70;;;;;;;1.11;100.00;98899.47;105263;1271;61372;-75
2022/02/03 20:33:04;;;;;;;46.10;24.40;;;;;;;1.11;100.00;98894.74;105302;1271;61345;-75
2022/02/03 20:35:31;;;;;;;43.30;25.60;;;;;;;1.12;100.00;98897.70;105319;1270;72858;-76
2022/02/03 20:37:57;;;;;;;41.20;23.80;;;;;;;1.12;100.00;98896.46;105328;1271;67738;-75
2022/02/03 20:40:24;;;;;;;47.40;24.80;;;;;;;1.12;100.00;98894.71;105302;1271;74204;-75
2022/02/03 20:42:51;;;;;;;51.30;26.10;;;;;;;1.12;100.00;98893.30;105279;1271;61306;-76
2022/02/03 20:45:18;;;;;;;43.90;24.20;;;;;;;1.13;100.00;98896.09;105119;1271;61265;-76
2022/02/03 20:47:45;;;;;;;42.10;23.80;;;;;;;1.12;100.00;98889.99;105297;1271;73464;-75
2022/02/03 20:50:19;;;;;;;44.40;23.50;;;;;;;1.11;100.00;98890.55;105055;1271;69942;-75
2022/02/03 20:52:48;;;;;;;40.60;23.40;;;;;;;1.13;100.00;98891.39;105148;1271;73471;-75
2022/02/03 20:55:16;;;;;;;48.90;23.90;;;;;;;1.13;100.00;98892.41;105335;1271;61316;-75
2022/02/03 20:57:44;;;;;;;44.90;22.20;;;;;;;1.14;100.00;98889.92;105293;1271;61549;-76
2022/02/03 21:05:16;;;;;;;48.60;23.60;;;;;;;1.14;100.00;98890.27;105298;1269;73965;-75
2022/02/03 21:07:45;;;;;;;45.30;23.90;;;;;;;1.14;100.00;98891.87;105274;1271;61252;-74
2022/02/03 21:10:18;;;;;;;44.60;21.80;;;;;;;1.14;100.00;98891.86;105305;1271;62001;-75
2022/02/03 21:12:46;;;;;;;41.80;22.40;;;;;;;1.14;100.00;98892.75;105114;1271;75079;-75
2022/02/03 21:15:21;;;;;;;44.60;24.10;;;;;;;1.15;100.00;98895.31;105317;1270;67595;-74
2022/02/03 21:17:48;;;;;;;47.20;24.70;;;;;;;1.17;100.00;98897.56;105061;1271;73422;-75
2022/02/03 21:20:17;;;;;;;48.80;25.50;;;;;;;1.16;100.00;98894.60;105328;1271;61294;-74
2022/02/03 21:22:44;;;;;;;46.80;24.00;;;;;;;1.13;100.00;98893.27;105336;1271;61887;-75
2022/02/03 21:27:48;;;;;;;52.50;27.60;;;;;;;1.14;100.00;98892.76;105363;1271;67437;-76
2022/02/03 21:30:18;;;;;;;57.90;29.00;;;;;;;1.13;100.00;98897.83;105283;1271;72394;-75
2022/02/03 21:32:46;;;;;;;55.90;30.60;;;;;;;1.14;100.00;98900.45;105409;1269;61329;-76
2022/02/03 21:35:14;;;;;;;83.60;42.60;;;;;;;1.15;100.00;98896.73;105469;1271;62168;-76
2022/02/03 21:37:42;;;;;;;76.10;41.10;;;;;;;1.15;100.00;98902.85;105336;1270;76125;-75
2022/02/03 21:40:10;;;;;;;88.30;44.60;;;;;;;1.17;100.00;98903.67;105291;1271;70162;-75
2022/02/03 21:42:37;;;;;;;89.60;45.30;;;;;;;1.19;100.00;98904.84;105031;1271;74349;-75
2022/02/03 21:45:05;;;;;;;101.50;52.60;;;;;;;1.19;100.00;98899.57;105284;1270;61284;-76
2022/02/03 21:47:32;;;;;;;102.10;52.30;;;;;;;1.20;100.00;98905.83;105194;1271;61282;-74
2022/02/03 21:49:59;;;;;;;114.00;56.80;;;;;;;1.20;100.00;98908.64;105312;1271;75745;-74
2022/02/03 21:52:37;;;;;;;108.50;57.50;;;;;;;1.21;100.00;98907.91;105337;1270;69501;-74
2022/02/03 21:55:06;;;;;;;93.70;49.90;;;;;;;1.23;100.00;98900.49;105303;1271;74450;-75
2022/02/03 21:57:34;;;;;;;89.90;46.60;;;;;;;1.25;100.00;98907.98;105364;1271;61386;-76
2022/02/03 22:00:01;;;;;;;90.60;44.40;;;;;;;1.25;100.00;98909.00;105259;1271;61144;-74
2022/02/03 22:02:28;;;;;;;85.30;41.80;;;;;;;1.27;100.00;98912.30;105021;1271;75662;-74
2022/02/03 22:04:55;;;;;;;78.20;39.50;;;;;;;1.27;100.00;98915.77;105296;1271;69338;-74
2022/02/03 22:07:22;;;;;;;80.70;42.10;;;;;;;1.28;100.00;98913.12;105304;1271;73237;-75
2022/02/03 22:09:48;;;;;;;83.70;42.30;;;;;;;1.29;100.00;98912.21;105278;1269;61258;-74
2022/02/03 22:12:15;;;;;;;82.90;42.90;;;;;;;1.30;100.00;98915.52;105274;1271;61348;-74
2022/02/03 22:14:42;;;;;;;81.20;43.10;;;;;;;1.30;100.00;98910.96;105295;1271;76807;-74
2022/02/03 22:17:09;;;;;;;88.30;43.30;;;;;;;1.31;100.00;98914.08;105334;1271;69370;-74